sensor_id;sensor_type;location;lat;lon;timestamp;temperature;humidity
37658;DHT22;23500;53.268;8.308;2023-09-12T00:00:58;24.10;81.20
37658;DHT22;23500;53.268;8.308;2023-09-12T00:03:30;24.10;81.10
37658;DHT22;23500;53.268;8.308;2023-09-12T00:05:58;24.10;81.20
37658;DHT22;23500;53.268;8.308;2023-09-12T00:08:25;24.10;81.20
37658;DHT22;23500;53.268;8.308;2023-09-12T00:11:08;24.00;81.20
37658;DHT22;23500;53.268;8.308;2023-09-12T00:13:38;24.00;81.30
37658;DHT22;23500;53.268;8.308;2023-09-12T00:16:04;24.00;81.20
37658;DHT22;23500;53.268;8.308;2023-09-12T00:18:31;24.00;81.20
37658;DHT22;23500;53.268;8.308;2023-09-12T00:20:56;24.00;81.30
37658;DHT22;23500;53.268;8.308;2023-09-12T00:23:24;24.00;81.30
37658;DHT22;23500;53.268;8.308;2023-09-12T00:25:51;24.00;81.30
37658;DHT22;23500;53.268;8.308;2023-09-12T00:28:18;24.00;81.30
37658;DHT22;23500;53.268;8.308;2023-09-12T00:30:43;24.00;81.30
37658;DHT22;23500;53.268;8.308;2023-09-12T00:33:09;24.00;81.30
37658;DHT22;23500;53.268;8.308;2023-09-12T00:35:35;24.00;81.30
37658;DHT22;23500;53.268;8.308;2023-09-12T00:38:01;24.00;81.30
37658;DHT22;23500;53.268;8.308;2023-09-12T00:40:26;24.00;81.30
37658;DHT22;23500;53.268;8.308;2023-09-12T00:42:52;24.00;81.30
37658;DHT22;23500;53.268;8.308;2023-09-12T00:45:18;24.00;81.30
37658;DHT22;23500;53.268;8.308;2023-09-12T00:47:44;24.00;81.30
37658;DHT22;23500;53.268;8.308;2023-09-12T00:50:10;24.00;81.40
37658;DHT22;23500;53.268;8.308;2023-09-12T00:52:38;24.00;81.30
37658;DHT22;23500;53.268;8.308;2023-09-12T00:55:04;24.00;81.40
37658;DHT22;23500;53.268;8.308;2023-09-12T00:57:31;24.00;81.40
37658;DHT22;23500;53.268;8.308;2023-09-12T00:59:57;24.00;81.40
37658;DHT22;23500;53.268;8.308;2023-09-12T01:02:24;23.90;81.40
37658;DHT22;23500;53.268;8.308;2023-09-12T01:04:50;23.90;81.40
37658;DHT22;23500;53.268;8.308;2023-09-12T01:07:16;23.90;81.40
37658;DHT22;23500;53.268;8.308;2023-09-12T01:09:42;23.90;81.40
37658;DHT22;23500;53.268;8.308;2023-09-12T01:12:08;23.90;81.40
37658;DHT22;23500;53.268;8.308;2023-09-12T01:14:34;23.90;81.40
37658;DHT22;23500;53.268;8.308;2023-09-12T01:17:00;23.90;81.50
37658;DHT22;23500;53.268;8.308;2023-09-12T01:19:29;23.90;81.50
37658;DHT22;23500;53.268;8.308;2023-09-12T01:22:21;23.90;81.50
37658;DHT22;23500;53.268;8.308;2023-09-12T01:27:21;23.90;81.50
37658;DHT22;23500;53.268;8.308;2023-09-12T01:29:50;23.90;81.60
37658;DHT22;23500;53.268;8.308;2023-09-12T01:32:18;23.90;81.60
37658;DHT22;23500;53.268;8.308;2023-09-12T01:34:44;23.90;81.60
37658;DHT22;23500;53.268;8.308;2023-09-12T01:37:09;23.90;81.60
37658;DHT22;23500;53.268;8.308;2023-09-12T01:39:35;23.90;81.60
37658;DHT22;23500;53.268;8.308;2023-09-12T01:42:01;23.90;81.60
37658;DHT22;23500;53.268;8.308;2023-09-12T01:44:28;23.90;81.70
37658;DHT22;23500;53.268;8.308;2023-09-12T01:46:57;23.90;81.70
37658;DHT22;23500;53.268;8.308;2023-09-12T01:49:24;23.90;81.70
37658;DHT22;23500;53.268;8.308;2023-09-12T01:51:51;23.90;81.70
37658;DHT22;23500;53.268;8.308;2023-09-12T01:54:19;23.90;81.70
37658;DHT22;23500;53.268;8.308;2023-09-12T01:56:45;23.90;81.70
37658;DHT22;23500;53.268;8.308;2023-09-12T01:59:11;23.80;81.60
37658;DHT22;23500;53.268;8.308;2023-09-12T02:01:37;23.90;81.70
37658;DHT22;23500;53.268;8.308;2023-09-12T02:04:02;23.90;81.70
37658;DHT22;23500;53.268;8.308;2023-09-12T02:06:34;23.80;81.60
37658;DHT22;23500;53.268;8.308;2023-09-12T02:08:59;23.80;81.70
37658;DHT22;23500;53.268;8.308;2023-09-12T02:11:26;23.80;81.70
37658;DHT22;23500;53.268;8.308;2023-09-12T02:13:52;23.80;81.70
37658;DHT22;23500;53.268;8.308;2023-09-12T02:16:18;23.80;81.70
37658;DHT22;23500;53.268;8.308;2023-09-12T02:18:43;23.80;81.70
37658;DHT22;23500;53.268;8.308;2023-09-12T02:21:09;23.80;81.70
37658;DHT22;23500;53.268;8.308;2023-09-12T02:23:35;23.80;82.40
37658;DHT22;23500;53.268;8.308;2023-09-12T02:26:00;23.80;81.70
37658;DHT22;23500;53.268;8.308;2023-09-12T02:28:26;23.80;81.70
37658;DHT22;23500;53.268;8.308;2023-09-12T02:30:52;23.80;81.70
37658;DHT22;23500;53.268;8.308;2023-09-12T02:33:18;23.80;81.70
37658;DHT22;23500;53.268;8.308;2023-09-12T02:35:43;23.80;81.80
37658;DHT22;23500;53.268;8.308;2023-09-12T02:38:09;23.80;81.70
37658;DHT22;23500;53.268;8.308;2023-09-12T02:40:34;23.80;81.80
37658;DHT22;23500;53.268;8.308;2023-09-12T02:43:00;23.80;81.80
37658;DHT22;23500;53.268;8.308;2023-09-12T02:45:26;23.80;82.50
37658;DHT22;23500;53.268;8.308;2023-09-12T02:47:51;23.70;81.80
37658;DHT22;23500;53.268;8.308;2023-09-12T02:50:17;23.70;81.80
37658;DHT22;23500;53.268;8.308;2023-09-12T02:52:42;23.70;81.90
37658;DHT22;23500;53.268;8.308;2023-09-12T02:55:08;23.70;81.80
37658;DHT22;23500;53.268;8.308;2023-09-12T02:57:34;23.70;81.80
37658;DHT22;23500;53.268;8.308;2023-09-12T02:59:59;23.70;81.90
37658;DHT22;23500;53.268;8.308;2023-09-12T03:02:25;23.70;81.80
37658;DHT22;23500;53.268;8.308;2023-09-12T03:04:51;23.70;81.90
37658;DHT22;23500;53.268;8.308;2023-09-12T03:07:16;23.70;81.90
37658;DHT22;23500;53.268;8.308;2023-09-12T03:09:42;23.70;81.90
37658;DHT22;23500;53.268;8.308;2023-09-12T03:12:07;23.70;81.90
37658;DHT22;23500;53.268;8.308;2023-09-12T03:14:33;23.70;81.90
37658;DHT22;23500;53.268;8.308;2023-09-12T03:16:59;23.70;81.90
37658;DHT22;23500;53.268;8.308;2023-09-12T03:19:24;23.70;81.90
37658;DHT22;23500;53.268;8.308;2023-09-12T03:21:50;23.70;81.90
37658;DHT22;23500;53.268;8.308;2023-09-12T03:24:16;23.70;82.00
37658;DHT22;23500;53.268;8.308;2023-09-12T03:26:43;23.70;81.90
37658;DHT22;23500;53.268;8.308;2023-09-12T03:29:09;23.70;81.90
37658;DHT22;23500;53.268;8.308;2023-09-12T03:31:35;23.70;82.00
37658;DHT22;23500;53.268;8.308;2023-09-12T03:34:01;23.70;81.90
37658;DHT22;23500;53.268;8.308;2023-09-12T03:36:26;23.70;82.00
37658;DHT22;23500;53.268;8.308;2023-09-12T03:38:52;23.70;82.00
37658;DHT22;23500;53.268;8.308;2023-09-12T03:41:18;23.70;82.00
37658;DHT22;23500;53.268;8.308;2023-09-12T03:43:43;23.70;82.00
37658;DHT22;23500;53.268;8.308;2023-09-12T03:46:09;23.70;82.00
37658;DHT22;23500;53.268;8.308;2023-09-12T03:48:35;23.60;81.90
37658;DHT22;23500;53.268;8.308;2023-09-12T03:51:02;23.60;81.90
37658;DHT22;23500;53.268;8.308;2023-09-12T03:53:29;23.60;82.00
37658;DHT22;23500;53.268;8.308;2023-09-12T03:55:55;23.60;81.90
37658;DHT22;23500;53.268;8.308;2023-09-12T03:58:21;23.60;82.70
37658;DHT22;23500;53.268;8.308;2023-09-12T04:00:47;23.60;82.10
37658;DHT22;23500;53.268;8.308;2023-09-12T04:03:12;23.60;82.00
37658;DHT22;23500;53.268;8.308;2023-09-12T04:05:38;23.60;82.10
37658;DHT22;23500;53.268;8.308;2023-09-12T04:08:04;23.60;82.10
37658;DHT22;23500;53.268;8.308;2023-09-12T04:10:29;23.60;82.10
37658;DHT22;23500;53.268;8.308;2023-09-12T04:12:55;23.60;82.10
37658;DHT22;23500;53.268;8.308;2023-09-12T04:15:21;23.60;82.10
37658;DHT22;23500;53.268;8.308;2023-09-12T04:17:46;23.60;82.10
37658;DHT22;23500;53.268;8.308;2023-09-12T04:20:12;23.60;82.20
37658;DHT22;23500;53.268;8.308;2023-09-12T04:22:43;23.60;82.20
37658;DHT22;23500;53.268;8.308;2023-09-12T04:25:09;23.60;82.20
37658;DHT22;23500;53.268;8.308;2023-09-12T04:27:34;23.60;82.20
37658;DHT22;23500;53.268;8.308;2023-09-12T04:30:00;23.60;82.20
37658;DHT22;23500;53.268;8.308;2023-09-12T04:32:26;23.60;82.20
37658;DHT22;23500;53.268;8.308;2023-09-12T04:34:52;23.60;82.20
37658;DHT22;23500;53.268;8.308;2023-09-12T04:37:18;23.60;82.30
37658;DHT22;23500;53.268;8.308;2023-09-12T04:39:44;23.60;82.30
37658;DHT22;23500;53.268;8.308;2023-09-12T04:42:10;23.50;82.20
37658;DHT22;23500;53.268;8.308;2023-09-12T04:44:36;23.50;82.30
37658;DHT22;23500;53.268;8.308;2023-09-12T04:47:02;23.50;82.30
37658;DHT22;23500;53.268;8.308;2023-09-12T04:49:28;23.50;82.30
37658;DHT22;23500;53.268;8.308;2023-09-12T04:51:54;23.50;82.30
37658;DHT22;23500;53.268;8.308;2023-09-12T04:54:19;23.50;82.30
37658;DHT22;23500;53.268;8.308;2023-09-12T04:56:45;23.60;82.30
37658;DHT22;23500;53.268;8.308;2023-09-12T04:59:10;23.60;82.30
37658;DHT22;23500;53.268;8.308;2023-09-12T05:01:36;23.50;82.40
37658;DHT22;23500;53.268;8.308;2023-09-12T05:04:02;23.50;82.40
37658;DHT22;23500;53.268;8.308;2023-09-12T05:06:28;23.50;82.50
37658;DHT22;23500;53.268;8.308;2023-09-12T05:08:54;23.50;82.40
37658;DHT22;23500;53.268;8.308;2023-09-12T05:11:21;23.50;82.40
37658;DHT22;23500;53.268;8.308;2023-09-12T05:13:47;23.50;82.50
37658;DHT22;23500;53.268;8.308;2023-09-12T05:16:13;23.50;82.50
37658;DHT22;23500;53.268;8.308;2023-09-12T05:18:38;23.50;82.50
37658;DHT22;23500;53.268;8.308;2023-09-12T05:21:04;23.50;82.40
37658;DHT22;23500;53.268;8.308;2023-09-12T05:23:30;23.50;82.50
37658;DHT22;23500;53.268;8.308;2023-09-12T05:25:55;23.50;82.50
37658;DHT22;23500;53.268;8.308;2023-09-12T05:28:21;23.40;82.30
37658;DHT22;23500;53.268;8.308;2023-09-12T05:30:47;23.40;82.30
37658;DHT22;23500;53.268;8.308;2023-09-12T05:33:12;23.50;82.30
37658;DHT22;23500;53.268;8.308;2023-09-12T05:35:38;23.50;82.30
37658;DHT22;23500;53.268;8.308;2023-09-12T05:38:04;23.50;82.30
37658;DHT22;23500;53.268;8.308;2023-09-12T05:40:29;23.40;82.20
